sensor_id;sensor_type;location;lat;lon;timestamp;pressure;altitude;pressure_sealevel;temperature;humidity
57644;BME280;43474;46.510;6.686;2023-01-23T00:00:58;97167.75;;;-2.22;100.00
57644;BME280;43474;46.510;6.686;2023-01-23T00:03:26;97159.66;;;-2.29;100.00
57644;BME280;43474;46.510;6.686;2023-01-23T00:06:12;97172.78;;;-2.21;100.00
57644;BME280;43474;46.510;6.686;2023-01-23T00:08:38;97155.84;;;-2.25;100.00
57644;BME280;43474;46.510;6.686;2023-01-23T00:11:10;97160.06;;;-2.24;100.00
57644;BME280;43474;46.510;6.686;2023-01-23T00:13:36;97161.84;;;-2.34;100.00
57644;BME280;43474;46.510;6.686;2023-01-23T00:16:09;97142.22;;;-2.46;100.00
57644;BME280;43474;46.510;6.686;2023-01-23T00:18:35;97147.97;;;-2.52;100.00
57644;BME280;43474;46.510;6.686;2023-01-23T00:21:05;97145.38;;;-2.43;100.00
57644;BME280;43474;46.510;6.686;2023-01-23T00:23:32;97151.47;;;-2.34;100.00
57644;BME280;43474;46.510;6.686;2023-01-23T00:26:05;97141.25;;;-2.45;100.00
57644;BME280;43474;46.510;6.686;2023-01-23T00:28:31;97143.19;;;-2.57;100.00
57644;BME280;43474;46.510;6.686;2023-01-23T00:31:04;97150.81;;;-2.55;100.00
57644;BME280;43474;46.510;6.686;2023-01-23T00:33:30;97146.59;;;-2.56;100.00
57644;BME280;43474;46.510;6.686;2023-01-23T00:35:56;97161.19;;;-2.46;100.00
57644;BME280;43474;46.510;6.686;2023-01-23T00:38:21;97152.72;;;-2.38;100.00
57644;BME280;43474;46.510;6.686;2023-01-23T00:40:47;97143.16;;;-2.28;100.00
57644;BME280;43474;46.510;6.686;2023-01-23T00:43:12;97140.84;;;-2.31;100.00
57644;BME280;43474;46.510;6.686;2023-01-23T00:45:38;97154.75;;;-2.22;100.00
57644;BME280;43474;46.510;6.686;2023-01-23T00:48:03;97131.81;;;-2.27;100.00
57644;BME280;43474;46.510;6.686;2023-01-23T00:50:29;97130.03;;;-2.17;100.00
57644;BME280;43474;46.510;6.686;2023-01-23T00:52:55;97137.09;;;-2.09;100.00
57644;BME280;43474;46.510;6.686;2023-01-23T00:55:20;97138.75;;;-2.08;100.00
57644;BME280;43474;46.510;6.686;2023-01-23T00:57:46;97127.72;;;-2.29;100.00
57644;BME280;43474;46.510;6.686;2023-01-23T01:00:12;97124.19;;;-2.28;100.00
57644;BME280;43474;46.510;6.686;2023-01-23T01:02:37;97110.50;;;-2.30;100.00
57644;BME280;43474;46.510;6.686;2023-01-23T01:05:03;97128.41;;;-2.27;100.00
57644;BME280;43474;46.510;6.686;2023-01-23T01:07:29;97128.97;;;-2.33;100.00
57644;BME280;43474;46.510;6.686;2023-01-23T01:09:55;97122.00;;;-2.43;100.00
57644;BME280;43474;46.510;6.686;2023-01-23T01:12:20;97119.25;;;-2.31;100.00
57644;BME280;43474;46.510;6.686;2023-01-23T01:14:46;97123.88;;;-2.25;100.00
57644;BME280;43474;46.510;6.686;2023-01-23T01:17:11;97124.84;;;-2.17;100.00
57644;BME280;43474;46.510;6.686;2023-01-23T01:19:37;97121.13;;;-2.14;100.00
57644;BME280;43474;46.510;6.686;2023-01-23T01:22:02;97125.41;;;-2.23;100.00
57644;BME280;43474;46.510;6.686;2023-01-23T01:24:28;97113.50;;;-2.25;100.00
57644;BME280;43474;46.510;6.686;2023-01-23T01:26:54;97111.59;;;-2.14;100.00
57644;BME280;43474;46.510;6.686;2023-01-23T01:29:19;97112.53;;;-2.24;100.00
57644;BME280;43474;46.510;6.686;2023-01-23T01:31:46;97125.09;;;-2.20;100.00
57644;BME280;43474;46.510;6.686;2023-01-23T01:34:12;97128.50;;;-2.10;100.00
57644;BME280;43474;46.510;6.686;2023-01-23T01:36:38;97107.47;;;-2.16;100.00
57644;BME280;43474;46.510;6.686;2023-01-23T01:39:04;97115.66;;;-2.11;100.00
57644;BME280;43474;46.510;6.686;2023-01-23T01:41:29;97109.41;;;-2.18;100.00
57644;BME280;43474;46.510;6.686;2023-01-23T01:43:55;97123.72;;;-2.14;100.00
57644;BME280;43474;46.510;6.686;2023-01-23T01:46:25;97125.63;;;-2.06;100.00
57644;BME280;43474;46.510;6.686;2023-01-23T01:49:17;97129.31;;;-2.09;100.00
57644;BME280;43474;46.510;6.686;2023-01-23T01:51:47;97125.50;;;-2.24;100.00
57644;BME280;43474;46.510;6.686;2023-01-23T01:54:30;97135.38;;;-2.28;100.00
57644;BME280;43474;46.510;6.686;2023-01-23T01:59:27;97118.41;;;-2.22;100.00
57644;BME280;43474;46.510;6.686;2023-01-23T02:01:59;97135.19;;;-2.07;100.00
57644;BME280;43474;46.510;6.686;2023-01-23T02:04:35;97110.72;;;-2.14;100.00
57644;BME280;43474;46.510;6.686;2023-01-23T02:07:07;97120.03;;;-2.12;100.00
57644;BME280;43474;46.510;6.686;2023-01-23T02:09:36;97135.84;;;-1.95;100.00
57644;BME280;43474;46.510;6.686;2023-01-23T02:12:02;97123.31;;;-2.10;100.00
57644;BME280;43474;46.510;6.686;2023-01-23T02:14:29;97131.91;;;-2.09;100.00
57644;BME280;43474;46.510;6.686;2023-01-23T02:16:54;97131.38;;;-2.03;100.00
57644;BME280;43474;46.510;6.686;2023-01-23T02:28:07;97117.41;;;-2.02;100.00
57644;BME280;43474;46.510;6.686;2023-01-23T02:30:35;97128.78;;;-2.03;100.00
57644;BME280;43474;46.510;6.686;2023-01-23T02:35:57;97122.47;;;-2.10;100.00
57644;BME280;43474;46.510;6.686;2023-01-23T02:38:26;97136.97;;;-2.08;100.00
57644;BME280;43474;46.510;6.686;2023-01-23T02:40:54;97139.84;;;-2.11;100.00
57644;BME280;43474;46.510;6.686;2023-01-23T02:43:23;97123.72;;;-2.14;100.00
57644;BME280;43474;46.510;6.686;2023-01-23T02:45:52;97128.91;;;-2.14;100.00
57644;BME280;43474;46.510;6.686;2023-01-23T02:48:18;97131.25;;;-2.11;100.00
57644;BME280;43474;46.510;6.686;2023-01-23T02:50:44;97115.00;;;-2.23;100.00
57644;BME280;43474;46.510;6.686;2023-01-23T02:53:11;97114.63;;;-2.28;100.00
57644;BME280;43474;46.510;6.686;2023-01-23T02:55:37;97115.69;;;-2.30;100.00
57644;BME280;43474;46.510;6.686;2023-01-23T02:58:06;97125.81;;;-2.27;100.00
57644;BME280;43474;46.510;6.686;2023-01-23T03:00:50;97115.69;;;-2.30;100.00
57644;BME280;43474;46.510;6.686;2023-01-23T03:03:16;97129.88;;;-2.25;100.00
57644;BME280;43474;46.510;6.686;2023-01-23T03:05:42;97119.91;;;-2.29;100.00
57644;BME280;43474;46.510;6.686;2023-01-23T03:08:07;97131.16;;;-2.39;100.00
57644;BME280;43474;46.510;6.686;2023-01-23T03:10:33;97111.75;;;-2.54;100.00
57644;BME280;43474;46.510;6.686;2023-01-23T03:12:58;97121.59;;;-2.38;100.00
57644;BME280;43474;46.510;6.686;2023-01-23T03:15:29;97123.06;;;-2.26;100.00
57644;BME280;43474;46.510;6.686;2023-01-23T03:17:57;97116.09;;;-2.35;100.00
57644;BME280;43474;46.510;6.686;2023-01-23T03:20:22;97114.63;;;-2.38;100.00
57644;BME280;43474;46.510;6.686;2023-01-23T03:22:48;97127.31;;;-2.35;100.00
57644;BME280;43474;46.510;6.686;2023-01-23T03:25:15;97125.81;;;-2.27;100.00
57644;BME280;43474;46.510;6.686;2023-01-23T03:27:41;97132.63;;;-2.26;100.00
57644;BME280;43474;46.510;6.686;2023-01-23T03:30:07;97112.13;;;-2.29;100.00
57644;BME280;43474;46.510;6.686;2023-01-23T03:32:44;97109.09;;;-2.15;100.00
57644;BME280;43474;46.510;6.686;2023-01-23T03:35:10;97098.06;;;-2.17;100.00
57644;BME280;43474;46.510;6.686;2023-01-23T03:37:44;97104.22;;;-2.18;100.00
57644;BME280;43474;46.510;6.686;2023-01-23T03:40:22;97108.94;;;-2.04;100.00
57644;BME280;43474;46.510;6.686;2023-01-23T03:43:07;97102.94;;;-2.04;100.00
57644;BME280;43474;46.510;6.686;2023-01-23T03:45:33;97102.13;;;-2.15;100.00
57644;BME280;43474;46.510;6.686;2023-01-23T03:47:59;97114.81;;;-2.02;100.00
57644;BME280;43474;46.510;6.686;2023-01-23T03:50:24;97102.56;;;-2.19;100.00
57644;BME280;43474;46.510;6.686;2023-01-23T03:52:50;97091.22;;;-2.18;100.00
57644;BME280;43474;46.510;6.686;2023-01-23T03:55:15;97094.06;;;-2.12;100.00
57644;BME280;43474;46.510;6.686;2023-01-23T03:57:41;97108.59;;;-2.19;100.00
57644;BME280;43474;46.510;6.686;2023-01-23T04:00:07;97103.25;;;-2.17;100.00
57644;BME280;43474;46.510;6.686;2023-01-23T04:02:33;97090.66;;;-2.12;100.00
57644;BME280;43474;46.510;6.686;2023-01-23T04:04:59;97101.88;;;-2.12;100.00
57644;BME280;43474;46.510;6.686;2023-01-23T04:07:24;97101.31;;;-2.15;100.00
57644;BME280;43474;46.510;6.686;2023-01-23T04:09:50;97084.78;;;-2.24;100.00
57644;BME280;43474;46.510;6.686;2023-01-23T04:12:16;97108.03;;;-2.13;100.00
57644;BME280;43474;46.510;6.686;2023-01-23T04:14:41;97114.72;;;-2.20;100.00
57644;BME280;43474;46.510;6.686;2023-01-23T04:17:07;97112.28;;;-2.31;100.00
57644;BME280;43474;46.510;6.686;2023-01-23T04:19:33;97110.34;;;-2.29;100.00
57644;BME280;43474;46.510;6.686;2023-01-23T04:22:00;97114.59;;;-2.18;100.00
57644;BME280;43474;46.510;6.686;2023-01-23T04:24:26;97111.44;;;-2.22;100.00
57644;BME280;43474;46.510;6.686;2023-01-23T04:26:52;97105.59;;;-2.33;100.00
57644;BME280;43474;46.510;6.686;2023-01-23T04:29:18;97111.47;;;-2.31;100.00
57644;BME280;43474;46.510;6.686;2023-01-23T04:31:43;97099.44;;;-2.32;100.00
57644;BME280;43474;46.510;6.686;2023-01-23T04:34:09;97093.31;;;-2.51;100.00
57644;BME280;43474;46.510;6.686;2023-01-23T04:36:35;97106.84;;;-2.47;100.00
57644;BME280;43474;46.510;6.686;2023-01-23T04:39:00;97111.63;;;-2.52;100.00
57644;BME280;43474;46.510;6.686;2023-01-23T04:41:28;97091.97;;;-2.65;100.00
57644;BME280;43474;46.510;6.686;2023-01-23T04:43:54;97089.91;;;-2.71;100.00
57644;BME280;43474;46.510;6.686;2023-01-23T04:46:20;97089.25;;;-2.73;100.00
57644;BME280;43474;46.510;6.686;2023-01-23T04:48:46;97112.19;;;-2.68;100.00
57644;BME280;43474;46.510;6.686;2023-01-23T04:51:11;97099.34;;;-2.79;100.00
57644;BME280;43474;46.510;6.686;2023-01-23T04:53:37;97080.34;;;-2.80;100.00
57644;BME280;43474;46.510;6.686;2023-01-23T04:56:03;97088.44;;;-2.83;100.00
57644;BME280;43474;46.510;6.686;2023-01-23T04:58:29;97100.03;;;-2.87;100.00
57644;BME280;43474;46.510;6.686;2023-01-23T05:01:03;97097.44;;;-2.97;100.00
57644;BME280;43474;46.510;6.686;2023-01-23T05:03:29;97086.09;;;-2.96;100.00
57644;BME280;43474;46.510;6.686;2023-01-23T05:05:54;97091.69;;;-3.00;100.00
57644;BME280;43474;46.510;6.686;2023-01-23T05:08:20;97066.28;;;-3.26;100.00
57644;BME280;43474;46.510;6.686;2023-01-23T05:10:45;97081.44;;;-3.21;100.00
57644;BME280;43474;46.510;6.686;2023-01-23T05:13:11;97094.13;;;-3.08;100.00
57644;BME280;43474;46.510;6.686;2023-01-23T05:15:37;97084.44;;;-3.06;100.00
57644;BME280;43474;46.510;6.686;2023-01-23T05:18:02;97092.09;;;-3.05;100.00
57644;BME280;43474;46.510;6.686;2023-01-23T05:20:28;97101.22;;;-3.10;100.00
57644;BME280;43474;46.510;6.686;2023-01-23T05:22:53;97089.22;;;-3.21;100.00
57644;BME280;43474;46.510;6.686;2023-01-23T05:25:24;97098.06;;;-3.24;100.00
57644;BME280;43474;46.510;6.686;2023-01-23T05:27:49;97099.81;;;-3.24;100.00
57644;BME280;43474;46.510;6.686;2023-01-23T05:30:16;97089.75;;;-3.27;100.00
57644;BME280;43474;46.510;6.686;2023-01-23T05:32:42;97087.94;;;-3.36;100.00
57644;BME280;43474;46.510;6.686;2023-01-23T05:35:09;97111.28;;;-3.27;100.00
57644;BME280;43474;46.510;6.686;2023-01-23T05:37:34;97100.63;;;-3.33;100.00
57644;BME280;43474;46.510;6.686;2023-01-23T05:40:00;97085.91;;;-3.33;100.00
57644;BME280;43474;46.510;6.686;2023-01-23T05:42:26;97103.94;;;-3.22;100.00
57644;BME280;43474;46.510;6.686;2023-01-23T05:44:51;97093.69;;;-3.33;100.00
57644;BME280;43474;46.510;6.686;2023-01-23T05:47:17;97096.41;;;-3.34;100.00
57644;BME280;43474;46.510;6.686;2023-01-23T05:49:43;97100.09;;;-3.37;100.00
57644;BME280;43474;46.510;6.686;2023-01-23T05:52:11;97094.47;;;-3.52;100.00
57644;BME280;43474;46.510;6.686;2023-01-23T05:54:37;97086.03;;;-3.34;100.00
57644;BME280;43474;46.510;6.686;2023-01-23T05:57:02;97095.31;;;-3.32;100.00
57644;BME280;43474;46.510;6.686;2023-01-23T05:59:28;97091.09;;;-3.43;100.00
57644;BME280;43474;46.510;6.686;2023-01-23T06:01:54;97090.53;;;-3.36;100.00
57644;BME280;43474;46.510;6.686;2023-01-23T06:04:20;97090.72;;;-2.99;100.00
57644;BME280;43474;46.510;6.686;2023-01-23T06:06:45;97079.41;;;-2.98;100.00
57644;BME280;43474;46.510;6.686;2023-01-23T06:09:11;97096.72;;;-2.99;100.00
57644;BME280;43474;46.510;6.686;2023-01-23T06:11:36;97083.22;;;-3.12;100.00
57644;BME280;43474;46.510;6.686;2023-01-23T06:14:02;97069.41;;;-3.32;100.00
57644;BME280;43474;46.510;6.686;2023-01-23T06:16:28;97087.28;;;-3.19;100.00
57644;BME280;43474;46.510;6.686;2023-01-23T06:18:54;97083.50;;;-2.96;100.00
57644;BME280;43474;46.510;6.686;2023-01-23T06:21:19;97079.00;;;-2.84;100.00
57644;BME280;43474;46.510;6.686;2023-01-23T06:23:45;97070.13;;;-2.91;100.00
57644;BME280;43474;46.510;6.686;2023-01-23T06:26:11;97082.94;;;-2.90;100.00
57644;BME280;43474;46.510;6.686;2023-01-23T06:28:37;97096.31;;;-2.84;100.00
57644;BME280;43474;46.510;6.686;2023-01-23T06:31:03;97091.13;;;-2.94;100.00
57644;BME280;43474;46.510;6.686;2023-01-23T06:33:29;97088.53;;;-2.84;100.00
57644;BME280;43474;46.510;6.686;2023-01-23T06:35:59;97090.19;;;-2.93;100.00
57644;BME280;43474;46.510;6.686;2023-01-23T06:38:26;97090.59;;;-3.07;100.00
57644;BME280;43474;46.510;6.686;2023-01-23T06:40:52;97085.94;;;-3.04;100.00
57644;BME280;43474;46.510;6.686;2023-01-23T06:43:18;97077.91;;;-3.01;100.00
57644;BME280;43474;46.510;6.686;2023-01-23T06:45:45;97074.34;;;-2.80;100.00
57644;BME280;43474;46.510;6.686;2023-01-23T06:48:12;97089.50;;;-2.86;100.00
57644;BME280;43474;46.510;6.686;2023-01-23T06:50:38;97084.59;;;-2.89;100.00
57644;BME280;43474;46.510;6.686;2023-01-23T06:53:04;97090.06;;;-2.92;100.00
57644;BME280;43474;46.510;6.686;2023-01-23T06:55:30;97103.03;;;-2.92;100.00
57644;BME280;43474;46.510;6.686;2023-01-23T06:57:56;97089.34;;;-2.94;100.00
57644;BME280;43474;46.510;6.686;2023-01-23T07:00:21;97102.31;;;-2.94;100.00
57644;BME280;43474;46.510;6.686;2023-01-23T07:02:47;97082.00;;;-2.89;100.00
57644;BME280;43474;46.510;6.686;2023-01-23T07:05:13;97099.47;;;-3.00;100.00
57644;BME280;43474;46.510;6.686;2023-01-23T07:07:39;97104.09;;;-3.04;100.00
57644;BME280;43474;46.510;6.686;2023-01-23T07:10:05;97090.84;;;-3.20;100.00
57644;BME280;43474;46.510;6.686;2023-01-23T07:12:31;97091.00;;;-3.12;100.00
57644;BME280;43474;46.510;6.686;2023-01-23T07:14:56;97094.66;;;-3.15;100.00
57644;BME280;43474;46.510;6.686;2023-01-23T07:17:22;97105.03;;;-3.15;100.00
57644;BME280;43474;46.510;6.686;2023-01-23T07:19:47;97086.06;;;-3.25;100.00
57644;BME280;43474;46.510;6.686;2023-01-23T07:22:19;97108.41;;;-3.33;100.00
57644;BME280;43474;46.510;6.686;2023-01-23T07:24:45;97093.16;;;-3.27;100.00
57644;BME280;43474;46.510;6.686;2023-01-23T07:27:12;97098.44;;;-3.28;100.00
57644;BME280;43474;46.510;6.686;2023-01-23T07:29:38;97099.00;;;-3.25;100.00
57644;BME280;43474;46.510;6.686;2023-01-23T07:32:05;97099.41;;;-3.29;100.00
57644;BME280;43474;46.510;6.686;2023-01-23T07:34:30;97097.22;;;-3.34;100.00
57644;BME280;43474;46.510;6.686;2023-01-23T07:36:57;97093.97;;;-3.26;100.00
57644;BME280;43474;46.510;6.686;2023-01-23T07:39:23;97076.50;;;-3.24;100.00
57644;BME280;43474;46.510;6.686;2023-01-23T07:41:48;97101.66;;;-2.76;100.00
57644;BME280;43474;46.510;6.686;2023-01-23T07:44:17;97098.50;;;-2.41;100.00
57644;BME280;43474;46.510;6.686;2023-01-23T07:46:44;97084.22;;;-1.98;100.00
57644;BME280;43474;46.510;6.686;2023-01-23T07:49:09;97093.00;;;-1.72;100.00
57644;BME280;43474;46.510;6.686;2023-01-23T07:51:35;97081.38;;;-1.50;100.00
57644;BME280;43474;46.510;6.686;2023-01-23T07:54:00;97097.09;;;-1.42;100.00
57644;BME280;43474;46.510;6.686;2023-01-23T07:56:26;97091.94;;;-1.24;100.00
57644;BME280;43474;46.510;6.686;2023-01-23T07:58:52;97102.44;;;-1.43;100.00
57644;BME280;43474;46.510;6.686;2023-01-23T08:01:18;97101.38;;;-1.05;100.00
57644;BME280;43474;46.510;6.686;2023-01-23T08:03:46;97100.88;;;-0.91;100.00
57644;BME280;43474;46.510;6.686;2023-01-23T08:06:12;97084.84;;;-0.68;100.00
57644;BME280;43474;46.510;6.686;2023-01-23T08:08:38;97090.06;;;-0.24;100.00
57644;BME280;43474;46.510;6.686;2023-01-23T08:11:06;97091.19;;;-0.45;100.00
57644;BME280;43474;46.510;6.686;2023-01-23T08:13:32;97086.31;;;0.04;100.00
57644;BME280;43474;46.510;6.686;2023-01-23T08:15:58;97093.72;;;0.17;100.00
57644;BME280;43474;46.510;6.686;2023-01-23T08:18:24;97080.19;;;-0.39;100.00
57644;BME280;43474;46.510;6.686;2023-01-23T08:20:54;97101.56;;;-0.53;100.00
57644;BME280;43474;46.510;6.686;2023-01-23T08:23:23;97111.22;;;-0.81;100.00
57644;BME280;43474;46.510;6.686;2023-01-23T08:25:52;97098.66;;;-1.03;100.00
57644;BME280;43474;46.510;6.686;2023-01-23T08:28:17;97101.81;;;-1.10;100.00
57644;BME280;43474;46.510;6.686;2023-01-23T08:30:43;97087.63;;;-1.15;100.00
57644;BME280;43474;46.510;6.686;2023-01-23T08:33:08;97096.63;;;-1.10;100.00
57644;BME280;43474;46.510;6.686;2023-01-23T08:35:34;97089.13;;;-0.95;100.00
57644;BME280;43474;46.510;6.686;2023-01-23T08:38:00;97085.22;;;-0.99;100.00
57644;BME280;43474;46.510;6.686;2023-01-23T08:40:27;97086.47;;;-1.03;100.00
57644;BME280;43474;46.510;6.686;2023-01-23T08:42:52;97071.56;;;-1.11;100.00
57644;BME280;43474;46.510;6.686;2023-01-23T08:45:18;97077.75;;;-1.12;100.00
57644;BME280;43474;46.510;6.686;2023-01-23T08:47:43;97082.50;;;-1.07;100.00
57644;BME280;43474;46.510;6.686;2023-01-23T08:50:09;97060.81;;;-1.16;100.00
57644;BME280;43474;46.510;6.686;2023-01-23T08:52:35;97085.72;;;-1.13;100.00
57644;BME280;43474;46.510;6.686;2023-01-23T08:55:01;97077.81;;;-1.21;100.00
57644;BME280;43474;46.510;6.686;2023-01-23T08:57:26;97069.19;;;-1.22;100.00
57644;BME280;43474;46.510;6.686;2023-01-23T08:59:52;97075.75;;;-1.18;100.00
57644;BME280;43474;46.510;6.686;2023-01-23T09:02:17;97058.94;;;-1.23;100.00
57644;BME280;43474;46.510;6.686;2023-01-23T09:04:43;97065.66;;;-1.03;100.00
57644;BME280;43474;46.510;6.686;2023-01-23T09:07:09;97050.78;;;-0.93;100.00
57644;BME280;43474;46.510;6.686;2023-01-23T09:09:34;97037.03;;;-1.21;100.00
57644;BME280;43474;46.510;6.686;2023-01-23T09:12:00;97066.75;;;-1.23;100.00
57644;BME280;43474;46.510;6.686;2023-01-23T09:14:26;97063.41;;;-1.34;100.00
57644;BME280;43474;46.510;6.686;2023-01-23T09:16:51;97060.69;;;-1.14;100.00
57644;BME280;43474;46.510;6.686;2023-01-23T09:19:17;97071.22;;;-0.62;100.00
57644;BME280;43474;46.510;6.686;2023-01-23T09:21:42;97076.63;;;-0.56;100.00
57644;BME280;43474;46.510;6.686;2023-01-23T09:24:08;97074.84;;;-0.55;100.00
57644;BME280;43474;46.510;6.686;2023-01-23T09:26:33;97074.38;;;-0.50;100.00
57644;BME280;43474;46.510;6.686;2023-01-23T09:28:59;97058.03;;;-0.61;100.00
57644;BME280;43474;46.510;6.686;2023-01-23T09:31:25;97075.06;;;-0.48;100.00
57644;BME280;43474;46.510;6.686;2023-01-23T09:33:51;97073.09;;;-0.29;100.00
57644;BME280;43474;46.510;6.686;2023-01-23T09:36:17;97069.06;;;-0.23;100.00
57644;BME280;43474;46.510;6.686;2023-01-23T09:38:42;97070.94;;;-0.07;100.00
57644;BME280;43474;46.510;6.686;2023-01-23T09:41:28;97080.66;;;0.09;100.00
57644;BME280;43474;46.510;6.686;2023-01-23T09:46:35;97055.09;;;0.12;100.00
57644;BME280;43474;46.510;6.686;2023-01-23T09:49:10;97069.47;;;0.24;100.00
57644;BME280;43474;46.510;6.686;2023-01-23T09:51:51;97060.59;;;0.35;100.00
57644;BME280;43474;46.510;6.686;2023-01-23T09:56:47;97047.16;;;-0.38;100.00
57644;BME280;43474;46.510;6.686;2023-01-23T09:59:34;97062.53;;;-0.45;100.00
57644;BME280;43474;46.510;6.686;2023-01-23T10:02:01;97053.09;;;-0.28;100.00
57644;BME280;43474;46.510;6.686;2023-01-23T10:04:27;97033.47;;;-0.14;100.00
57644;BME280;43474;46.510;6.686;2023-01-23T10:13:17;97072.88;;;0.17;100.00
57644;BME280;43474;46.510;6.686;2023-01-23T10:16:32;97051.00;;;0.10;100.00
57644;BME280;43474;46.510;6.686;2023-01-23T10:26:38;97045.47;;;1.71;95.82
57644;BME280;43474;46.510;6.686;2023-01-23T10:29:37;97036.59;;;2.04;92.84
57644;BME280;43474;46.510;6.686;2023-01-23T10:32:17;97031.63;;;2.57;95.67
57644;BME280;43474;46.510;6.686;2023-01-23T10:34:53;97030.81;;;2.56;91.14
57644;BME280;43474;46.510;6.686;2023-01-23T10:37:22;97020.19;;;2.58;88.31
57644;BME280;43474;46.510;6.686;2023-01-23T10:40:00;97012.31;;;2.27;90.20
57644;BME280;43474;46.510;6.686;2023-01-23T10:42:28;97014.03;;;2.03;89.95
57644;BME280;43474;46.510;6.686;2023-01-23T10:44:53;97010.00;;;1.85;92.17
57644;BME280;43474;46.510;6.686;2023-01-23T10:47:33;96995.91;;;2.41;90.00
57644;BME280;43474;46.510;6.686;2023-01-23T10:49:59;97028.47;;;1.75;91.72
57644;BME280;43474;46.510;6.686;2023-01-23T10:52:43;97023.38;;;1.90;93.88
57644;BME280;43474;46.510;6.686;2023-01-23T10:57:52;97011.63;;;1.86;91.02
57644;BME280;43474;46.510;6.686;2023-01-23T11:00:26;97007.41;;;1.85;91.90
57644;BME280;43474;46.510;6.686;2023-01-23T11:02:54;97025.69;;;1.85;91.37
57644;BME280;43474;46.510;6.686;2023-01-23T11:08:00;97009.09;;;2.17;91.60
57644;BME280;43474;46.510;6.686;2023-01-23T11:10:26;97012.31;;;2.27;89.60
57644;BME280;43474;46.510;6.686;2023-01-23T11:12:53;96995.28;;;2.39;89.97
57644;BME280;43474;46.510;6.686;2023-01-23T11:17:54;97000.81;;;2.75;85.00
57644;BME280;43474;46.510;6.686;2023-01-23T11:20:24;96987.28;;;2.95;88.50
57644;BME280;43474;46.510;6.686;2023-01-23T11:23:17;96987.13;;;2.65;83.71
57644;BME280;43474;46.510;6.686;2023-01-23T11:28:26;96983.66;;;1.06;92.16
57644;BME280;43474;46.510;6.686;2023-01-23T11:36:06;97012.19;;;1.16;91.38
57644;BME280;43474;46.510;6.686;2023-01-23T11:38:43;97007.16;;;2.02;94.10
57644;BME280;43474;46.510;6.686;2023-01-23T11:41:10;96990.91;;;2.23;88.91
57644;BME280;43474;46.510;6.686;2023-01-23T11:43:38;96978.47;;;1.94;89.04
57644;BME280;43474;46.510;6.686;2023-01-23T11:46:23;96986.25;;;2.02;89.40
57644;BME280;43474;46.510;6.686;2023-01-23T11:49:10;96967.25;;;2.17;90.07
57644;BME280;43474;46.510;6.686;2023-01-23T11:51:45;97004.47;;;1.71;90.70
57644;BME280;43474;46.510;6.686;2023-01-23T11:54:42;96999.63;;;1.36;92.33
57644;BME280;43474;46.510;6.686;2023-01-23T11:57:54;97000.09;;;1.55;91.42
57644;BME280;43474;46.510;6.686;2023-01-23T12:11:13;96961.19;;;2.24;91.17
57644;BME280;43474;46.510;6.686;2023-01-23T12:13:50;96956.00;;;2.16;89.49
57644;BME280;43474;46.510;6.686;2023-01-23T12:16:58;96945.09;;;1.49;89.78
57644;BME280;43474;46.510;6.686;2023-01-23T12:27:43;96956.22;;;1.26;94.37
57644;BME280;43474;46.510;6.686;2023-01-23T12:38:31;96960.81;;;1.24;91.71
57644;BME280;43474;46.510;6.686;2023-01-23T12:46:21;96941.88;;;0.73;98.19
57644;BME280;43474;46.510;6.686;2023-01-23T12:48:53;96938.47;;;1.06;95.82
57644;BME280;43474;46.510;6.686;2023-01-23T12:51:33;96928.72;;;1.71;95.23
57644;BME280;43474;46.510;6.686;2023-01-23T12:54:03;96950.53;;;1.87;91.07
57644;BME280;43474;46.510;6.686;2023-01-23T12:56:33;96950.44;;;1.64;90.68
57644;BME280;43474;46.510;6.686;2023-01-23T12:59:09;96924.03;;;1.50;91.02
57644;BME280;43474;46.510;6.686;2023-01-23T13:07:23;96937.16;;;0.61;96.60
57644;BME280;43474;46.510;6.686;2023-01-23T13:12:47;96940.06;;;0.58;95.16
57644;BME280;43474;46.510;6.686;2023-01-23T13:17:49;96931.44;;;1.22;94.31
57644;BME280;43474;46.510;6.686;2023-01-23T13:20:33;96939.94;;;1.00;95.39
57644;BME280;43474;46.510;6.686;2023-01-23T13:26:09;96930.00;;;0.95;94.91
57644;BME280;43474;46.510;6.686;2023-01-23T13:28:48;96945.31;;;0.82;91.48
57644;BME280;43474;46.510;6.686;2023-01-23T13:31:38;96943.97;;;0.54;94.31
57644;BME280;43474;46.510;6.686;2023-01-23T13:36:42;96942.91;;;0.22;95.47
57644;BME280;43474;46.510;6.686;2023-01-23T13:41:47;96939.50;;;0.21;97.59
57644;BME280;43474;46.510;6.686;2023-01-23T13:44:24;96922.63;;;-0.01;96.00
57644;BME280;43474;46.510;6.686;2023-01-23T13:47:19;96932.38;;;-0.11;96.90
57644;BME280;43474;46.510;6.686;2023-01-23T13:50:34;96943.75;;;-0.20;97.04
57644;BME280;43474;46.510;6.686;2023-01-23T13:53:14;96940.66;;;-0.15;98.87
57644;BME280;43474;46.510;6.686;2023-01-23T13:56:00;96950.00;;;-0.05;96.77
57644;BME280;43474;46.510;6.686;2023-01-23T13:58:47;96938.63;;;0.05;96.71
57644;BME280;43474;46.510;6.686;2023-01-23T14:01:17;96945.22;;;0.25;98.32
57644;BME280;43474;46.510;6.686;2023-01-23T14:04:13;96932.53;;;0.30;97.59
57644;BME280;43474;46.510;6.686;2023-01-23T14:06:59;96940.66;;;0.27;95.66
57644;BME280;43474;46.510;6.686;2023-01-23T14:09:27;96950.47;;;0.41;95.24
57644;BME280;43474;46.510;6.686;2023-01-23T14:11:57;96946.28;;;0.65;95.00
57644;BME280;43474;46.510;6.686;2023-01-23T14:14:23;96943.81;;;0.55;94.76
57644;BME280;43474;46.510;6.686;2023-01-23T14:17:10;96944.13;;;0.52;95.20
57644;BME280;43474;46.510;6.686;2023-01-23T14:20:10;96948.19;;;0.55;93.87
57644;BME280;43474;46.510;6.686;2023-01-23T14:22:40;96929.28;;;0.44;95.44
57644;BME280;43474;46.510;6.686;2023-01-23T14:25:16;96952.63;;;0.62;94.56
57644;BME280;43474;46.510;6.686;2023-01-23T14:27:42;96933.94;;;0.24;95.68
57644;BME280;43474;46.510;6.686;2023-01-23T14:30:15;96937.53;;;0.23;95.43
57644;BME280;43474;46.510;6.686;2023-01-23T14:32:41;96949.41;;;0.18;95.79
57644;BME280;43474;46.510;6.686;2023-01-23T14:35:19;96956.59;;;0.16;96.07
57644;BME280;43474;46.510;6.686;2023-01-23T14:37:47;96956.03;;;0.04;96.73
57644;BME280;43474;46.510;6.686;2023-01-23T14:40:17;96973.94;;;-0.01;98.39
57644;BME280;43474;46.510;6.686;2023-01-23T14:42:44;96944.00;;;-0.31;97.80
57644;BME280;43474;46.510;6.686;2023-01-23T14:45:12;96958.19;;;-0.26;99.45
57644;BME280;43474;46.510;6.686;2023-01-23T14:47:42;96921.84;;;-0.43;99.88